Time;durP1;ratioP1;P1;durP2;ratioP2;P2;SDS_P1;SDS_P2;PMS_P1;PMS_P2;Temp;Humidity;BMP_temperature;BMP_pressure;BME280_temperature;BME280_humidity;BME280_pressure;Samples;Min_cycle;Max_cycle;Signal;HPM_P1;HPM_P2
2022/05/12 00:01:59;;;;;;;5.83;1.40;;;12.20;99.90;;;;;;5071472;28;20033;-76
2022/05/12 00:04:26;;;;;;;4.63;1.47;;;12.20;99.90;;;;;;5077749;28;20067;-77
2022/05/12 00:06:52;;;;;;;6.07;1.73;;;12.10;99.90;;;;;;5075820;28;20044;-77
2022/05/12 00:09:18;;;;;;;4.03;1.57;;;12.10;99.90;;;;;;5075412;28;20041;-77
2022/05/12 00:11:44;;;;;;;4.23;1.20;;;12.00;99.90;;;;;;5073648;28;20055;-77
2022/05/12 00:14:10;;;;;;;2.73;1.20;;;12.00;99.90;;;;;;5059795;28;20447;-77
2022/05/12 00:16:37;;;;;;;3.63;1.33;;;11.90;99.90;;;;;;5064839;28;20048;-78
2022/05/12 00:19:03;;;;;;;4.17;1.20;;;11.90;99.90;;;;;;5068043;28;20150;-77
2022/05/12 00:21:28;;;;;;;4.33;1.00;;;11.80;99.90;;;;;;5076836;28;20040;-77
2022/05/12 00:23:57;;;;;;;3.20;1.10;;;11.80;99.90;;;;;;5067000;28;20056;-78
2022/05/12 00:26:28;;;;;;;3.73;1.23;;;11.80;99.90;;;;;;5075540;28;20567;-77
2022/05/12 00:28:57;;;;;;;2.20;1.50;;;11.80;99.90;;;;;;5075834;28;20037;-77
2022/05/12 00:31:23;;;;;;;4.73;1.13;;;11.70;99.90;;;;;;5076007;28;20044;-77
2022/05/12 00:33:49;;;;;;;3.57;1.20;;;11.80;99.90;;;;;;5066260;28;20108;-76
2022/05/12 00:36:15;;;;;;;3.60;1.30;;;11.70;99.90;;;;;;5076096;28;20052;-77
2022/05/12 00:38:42;;;;;;;3.60;1.10;;;11.60;99.90;;;;;;5074529;28;20083;-77
2022/05/12 00:41:08;;;;;;;6.37;1.43;;;11.60;99.90;;;;;;5070754;28;20037;-78
2022/05/12 00:43:39;;;;;;;4.43;1.23;;;11.60;99.90;;;;;;5061042;28;20091;-77
2022/05/12 00:46:16;;;;;;;4.43;1.03;;;11.50;99.90;;;;;;5077491;28;20056;-77
2022/05/12 00:48:44;;;;;;;3.30;1.57;;;11.50;99.90;;;;;;5075744;28;20044;-78
2022/05/12 00:51:13;;;;;;;6.00;1.40;;;11.40;99.90;;;;;;5076184;28;20321;-76
2022/05/12 00:53:39;;;;;;;3.50;1.20;;;11.40;99.90;;;;;;5063967;28;20110;-77
2022/05/12 00:56:14;;;;;;;3.37;1.30;;;11.40;99.90;;;;;;5085448;28;20060;-79
2022/05/12 00:58:40;;;;;;;2.97;1.03;;;11.40;99.90;;;;;;5068578;28;20072;-77
2022/05/12 01:01:09;;;;;;;4.40;1.23;;;11.30;99.90;;;;;;5074451;28;20064;-77
2022/05/12 01:03:39;;;;;;;3.83;1.10;;;11.30;99.90;;;;;;5073726;28;20044;-77
2022/05/12 01:06:05;;;;;;;3.27;0.90;;;11.30;99.90;;;;;;5067921;28;20060;-76
2022/05/12 01:08:31;;;;;;;4.93;1.53;;;11.30;99.90;;;;;;5054351;28;20049;-77
2022/05/12 01:11:02;;;;;;;2.90;1.07;;;11.30;99.90;;;;;;5075081;28;20116;-78
2022/05/12 01:13:29;;;;;;;3.95;1.30;;;11.30;99.90;;;;;;5070761;28;20045;-78
2022/05/12 01:15:58;;;;;;;2.57;1.10;;;11.20;99.90;;;;;;5075526;28;20587;-77
2022/05/12 01:18:26;;;;;;;3.97;1.30;;;11.20;99.90;;;;;;5074495;28;20044;-76
2022/05/12 01:20:53;;;;;;;2.87;1.17;;;11.10;99.90;;;;;;5074527;28;20079;-77
2022/05/12 01:23:24;;;;;;;4.93;1.37;;;11.10;99.90;;;;;;5076256;28;20067;-77
2022/05/12 01:25:50;;;;;;;4.27;1.23;;;11.10;99.90;;;;;;5063457;28;20052;-78
2022/05/12 01:28:16;;;;;;;4.80;1.60;;;11.10;99.90;;;;;;5075057;28;20052;-78
2022/05/12 01:30:41;;;;;;;3.00;1.30;;;11.10;99.90;;;;;;5073817;28;20048;-77
2022/05/12 01:33:07;;;;;;;4.83;1.20;;;11.00;99.90;;;;;;5074028;28;20051;-78
2022/05/12 01:35:33;;;;;;;3.20;1.30;;;11.00;99.90;;;;;;5047996;28;20875;-77
2022/05/12 01:37:59;;;;;;;1.57;1.40;;;10.90;99.90;;;;;;5069917;28;20381;-77
2022/05/12 01:40:25;;;;;;;5.50;1.90;;;10.90;99.90;;;;;;5076386;28;20087;-77
2022/05/12 01:42:53;;;;;;;4.50;1.40;;;10.90;99.90;;;;;;5069688;28;20100;-79
2022/05/12 01:45:20;;;;;;;3.87;1.40;;;10.90;99.90;;;;;;5074750;28;20106;-77
2022/05/12 01:47:46;;;;;;;4.40;1.57;;;10.80;99.90;;;;;;5072867;28;20045;-78
2022/05/12 01:50:14;;;;;;;5.83;1.47;;;10.80;99.90;;;;;;5076152;28;20060;-77
2022/05/12 01:52:44;;;;;;;2.43;1.30;;;10.80;99.90;;;;;;5074066;28;20058;-78
2022/05/12 01:55:16;;;;;;;3.80;1.13;;;10.80;99.90;;;;;;5073597;28;20660;-78
2022/05/12 01:57:44;;;;;;;4.20;1.45;;;10.70;99.90;;;;;;5071272;28;20052;-78
2022/05/12 02:00:14;;;;;;;3.73;1.40;;;10.70;99.90;;;;;;5074097;28;20064;-77
2022/05/12 02:02:40;;;;;;;3.43;1.50;;;10.60;99.90;;;;;;5071606;28;20036;-78
2022/05/12 02:05:09;;;;;;;3.13;1.30;;;10.60;99.90;;;;;;5074290;28;20237;-77
2022/05/12 02:07:37;;;;;;;2.77;1.33;;;10.60;99.90;;;;;;5073629;28;20090;-77
2022/05/12 02:10:06;;;;;;;5.23;1.57;;;10.60;99.90;;;;;;5060118;28;20048;-77
2022/05/12 02:12:31;;;;;;;5.23;1.53;;;10.60;99.90;;;;;;5067732;28;20037;-78
2022/05/12 02:14:57;;;;;;;4.23;1.80;;;10.50;99.90;;;;;;5070659;28;20058;-78
2022/05/12 02:17:23;;;;;;;5.50;2.00;;;10.50;99.90;;;;;;5074510;28;20071;-78
2022/05/12 02:19:48;;;;;;;7.47;1.60;;;10.50;99.90;;;;;;5072283;28;20412;-78
2022/05/12 02:22:14;;;;;;;3.50;1.80;;;10.50;99.90;;;;;;5069326;28;20048;-76
2022/05/12 02:24:40;;;;;;;3.40;2.00;;;10.50;99.90;;;;;;5053779;28;20052;-77
2022/05/12 02:27:06;;;;;;;4.93;1.90;;;10.50;99.90;;;;;;5075810;28;20812;-78
2022/05/12 02:29:32;;;;;;;4.83;1.83;;;10.50;99.90;;;;;;5073249;28;20052;-77
2022/05/12 02:31:58;;;;;;;3.67;1.83;;;10.50;99.90;;;;;;5072836;28;20044;-77
2022/05/12 02:34:23;;;;;;;4.13;1.87;;;10.50;99.90;;;;;;5061812;28;20045;-78
2022/05/12 02:37:01;;;;;;;5.90;1.77;;;10.40;99.90;;;;;;5057007;28;20108;-78
2022/05/12 02:39:36;;;;;;;7.63;2.20;;;10.40;99.90;;;;;;5071277;28;20048;-77
2022/05/12 02:42:07;;;;;;;6.27;1.80;;;10.40;99.90;;;;;;5072259;28;20052;-78
2022/05/12 02:44:34;;;;;;;4.43;1.80;;;10.40;99.90;;;;;;5055662;28;20194;-77
2022/05/12 02:46:59;;;;;;;5.10;2.00;;;10.40;99.90;;;;;;5060612;28;20067;-79
2022/05/12 02:49:25;;;;;;;5.40;2.00;;;10.40;99.90;;;;;;5068919;28;20037;-77
2022/05/12 02:51:52;;;;;;;4.87;1.83;;;10.30;99.90;;;;;;5070070;28;20089;-78
2022/05/12 02:54:19;;;;;;;6.33;2.00;;;10.30;99.90;;;;;;5074871;28;20057;-77
2022/05/12 02:56:45;;;;;;;2.63;1.60;;;10.30;99.90;;;;;;5073780;28;20441;-79
2022/05/12 02:59:11;;;;;;;5.67;1.80;;;10.30;99.90;;;;;;5074501;28;20049;-78
2022/05/12 03:01:38;;;;;;;3.83;1.80;;;10.30;99.90;;;;;;5067762;28;20045;-78
2022/05/12 03:04:04;;;;;;;6.27;2.30;;;10.20;99.90;;;;;;5071622;28;20587;-77
2022/05/12 03:06:30;;;;;;;4.23;2.13;;;10.30;99.90;;;;;;5071066;28;20071;-76
2022/05/12 03:08:58;;;;;;;8.47;2.37;;;10.20;99.90;;;;;;5072982;28;20032;-77
2022/05/12 03:11:24;;;;;;;4.67;1.87;;;10.10;99.90;;;;;;5065326;28;20563;-78
2022/05/12 03:13:50;;;;;;;3.20;1.90;;;10.10;99.90;;;;;;5072116;28;20144;-77
2022/05/12 03:16:18;;;;;;;6.63;2.30;;;10.10;99.90;;;;;;5074781;28;20080;-77
2022/05/12 03:18:51;;;;;;;5.93;1.87;;;10.10;99.90;;;;;;5075586;28;20621;-78
2022/05/12 03:21:18;;;;;;;5.57;1.93;;;10.10;99.90;;;;;;5077322;28;20052;-78
2022/05/12 03:23:44;;;;;;;5.37;1.97;;;10.10;99.90;;;;;;5077139;28;20045;-78
2022/05/12 03:26:11;;;;;;;4.13;1.97;;;10.10;99.90;;;;;;5071178;28;20036;-78
2022/05/12 03:28:38;;;;;;;6.67;2.67;;;10.10;99.90;;;;;;5066249;28;20049;-77
2022/05/12 03:31:04;;;;;;;8.33;2.40;;;10.10;99.90;;;;;;5077536;28;20049;-80
2022/05/12 03:33:31;;;;;;;6.93;2.60;;;10.00;99.90;;;;;;5072795;28;20037;-77
2022/05/12 03:35:58;;;;;;;8.23;2.40;;;10.00;99.90;;;;;;5074838;28;20518;-77
2022/05/12 03:38:24;;;;;;;4.30;2.33;;;10.00;99.90;;;;;;5076993;28;20052;-78
2022/05/12 03:40:50;;;;;;;7.13;2.33;;;10.00;99.90;;;;;;5073242;28;20526;-77
2022/05/12 03:44:46;;;;;;;5.77;2.60;;;10.00;99.90;;;;;;5075371;28;20113;-79
2022/05/12 03:46:02;;;;;;;7.43;2.97;;;10.00;99.90;;;;;;5075428;28;20041;-77
2022/05/12 03:48:28;;;;;;;6.07;2.80;;;10.00;99.90;;;;;;5078236;28;20071;-77
2022/05/12 03:50:54;;;;;;;7.37;2.77;;;10.00;99.90;;;;;;5078054;28;20067;-76
2022/05/12 03:53:19;;;;;;;7.30;2.70;;;10.00;99.90;;;;;;5077392;28;20084;-77
2022/05/12 03:55:45;;;;;;;7.27;2.60;;;10.00;99.90;;;;;;5072953;28;20514;-77
2022/05/12 03:58:11;;;;;;;5.23;2.40;;;10.00;99.90;;;;;;5073885;28;20044;-77
2022/05/12 04:00:38;;;;;;;6.57;3.03;;;10.00;99.90;;;;;;5076566;28;20104;-77
2022/05/12 04:03:04;;;;;;;6.63;2.67;;;10.00;99.90;;;;;;5075997;28;20052;-79
2022/05/12 04:05:31;;;;;;;8.73;3.50;;;10.00;99.90;;;;;;5076564;28;20052;-77
2022/05/12 04:07:58;;;;;;;9.73;3.07;;;10.00;99.90;;;;;;5072964;28;20075;-76
2022/05/12 04:10:25;;;;;;;4.70;2.83;;;10.00;99.90;;;;;;5075968;28;20112;-77
2022/05/12 04:12:52;;;;;;;7.33;2.90;;;10.00;99.90;;;;;;5072515;28;20543;-77
2022/05/12 04:15:19;;;;;;;6.23;2.57;;;10.00;99.90;;;;;;5077247;28;20048;-77
2022/05/12 04:17:46;;;;;;;7.13;3.43;;;10.10;99.90;;;;;;5075472;28;20052;-77
2022/05/12 04:20:13;;;;;;;8.17;3.33;;;10.10;99.90;;;;;;5070637;28;20052;-77
2022/05/12 04:22:46;;;;;;;7.93;3.37;;;10.20;99.90;;;;;;5076059;28;20044;-77
2022/05/12 04:25:12;;;;;;;10.43;3.20;;;10.10;99.90;;;;;;5068179;28;20045;-78
2022/05/12 04:27:39;;;;;;;7.50;3.00;;;10.20;99.90;;;;;;5076051;28;20044;-77
2022/05/12 04:30:06;;;;;;;6.13;3.27;;;10.20;99.90;;;;;;5077115;28;20044;-77
2022/05/12 04:32:32;;;;;;;9.80;3.53;;;10.20;99.90;;;;;;5077528;28;20051;-78
2022/05/12 04:35:11;;;;;;;8.93;2.93;;;10.20;99.90;;;;;;5077389;28;20598;-77
2022/05/12 04:37:44;;;;;;;8.60;3.53;;;10.20;99.90;;;;;;5073603;28;20127;-77
2022/05/12 04:40:14;;;;;;;10.87;3.43;;;10.20;99.90;;;;;;5072941;28;20044;-77
2022/05/12 04:42:40;;;;;;;9.67;3.13;;;10.20;99.90;;;;;;5071407;28;20087;-78
2022/05/12 04:45:07;;;;;;;9.30;4.10;;;10.20;99.90;;;;;;5077398;28;20048;-77
2022/05/12 04:47:34;;;;;;;9.17;3.60;;;10.30;99.90;;;;;;5074557;28;20529;-77
2022/05/12 04:50:00;;;;;;;8.60;3.60;;;10.30;99.90;;;;;;5063179;28;20153;-78
2022/05/12 04:52:27;;;;;;;12.27;4.10;;;10.30;99.90;;;;;;5074744;28;20036;-77
2022/05/12 04:54:54;;;;;;;8.33;3.67;;;10.30;99.90;;;;;;5075293;28;20064;-78
2022/05/12 04:57:20;;;;;;;7.07;3.90;;;10.30;99.90;;;;;;5065580;28;20083;-78
2022/05/12 04:59:47;;;;;;;5.97;3.63;;;10.40;99.90;;;;;;5075236;28;20052;-77
2022/05/12 05:02:13;;;;;;;7.50;4.20;;;10.40;99.90;;;;;;5070609;28;20049;-77
2022/05/12 05:04:39;;;;;;;10.07;3.60;;;10.50;99.90;;;;;;5074484;28;20048;-78
2022/05/12 05:07:06;;;;;;;12.03;4.10;;;10.60;99.90;;;;;;5065582;28;20079;-77
2022/05/12 05:09:32;;;;;;;10.93;4.83;;;10.50;99.90;;;;;;5068033;28;20053;-77
2022/05/12 05:11:58;;;;;;;6.07;4.30;;;10.60;99.90;;;;;;5068161;28;20175;-76
2022/05/12 05:14:23;;;;;;;7.90;4.20;;;10.60;99.90;;;;;;5069158;28;20041;-78
2022/05/12 05:16:49;;;;;;;10.67;4.40;;;10.70;99.90;;;;;;5070152;28;20045;-78
2022/05/12 05:19:16;;;;;;;10.10;4.33;;;10.70;99.90;;;;;;5067358;28;20040;-80
2022/05/12 05:21:42;;;;;;;10.57;4.20;;;10.80;99.90;;;;;;5047612;28;20049;-79
2022/05/12 05:24:08;;;;;;;9.23;4.20;;;10.90;99.90;;;;;;5066522;28;20796;-78
2022/05/12 05:26:34;;;;;;;10.43;4.93;;;10.90;99.90;;;;;;5066218;28;20718;-78
2022/05/12 05:29:01;;;;;;;12.20;4.67;;;11.00;99.90;;;;;;5067592;28;20056;-79
2022/05/12 05:31:27;;;;;;;11.40;5.27;;;11.10;99.90;;;;;;5064289;28;20087;-78
2022/05/12 05:33:53;;;;;;;9.50;4.57;;;11.10;99.90;;;;;;5062786;28;20147;-79
2022/05/12 05:36:19;;;;;;;10.77;5.47;;;11.20;99.90;;;;;;5066600;28;20064;-77
2022/05/12 05:38:45;;;;;;;13.80;4.90;;;11.30;99.90;;;;;;5074549;28;20055;-77
2022/05/12 05:41:11;;;;;;;11.93;5.07;;;11.40;99.90;;;;;;5071940;28;20040;-78
2022/05/12 05:43:38;;;;;;;12.20;5.20;;;11.50;99.90;;;;;;5078093;28;20047;-78
2022/05/12 05:46:04;;;;;;;9.60;4.70;;;11.50;99.90;;;;;;5067685;28;20044;-77
2022/05/12 05:48:31;;;;;;;12.77;5.27;;;11.60;99.90;;;;;;5066448;28;20040;-75
2022/05/12 05:53:42;;;;;;;12.57;5.50;;;11.70;99.90;;;;;;5060172;28;20041;-76
2022/05/12 05:56:20;;;;;;;9.87;5.07;;;11.80;99.90;;;;;;5070796;28;20045;-76
2022/05/12 05:58:46;;;;;;;13.70;5.63;;;11.80;99.90;;;;;;5070752;28;20059;-76
2022/05/12 06:01:12;;;;;;;12.87;5.93;;;11.90;99.90;;;;;;5063216;28;20055;-77
2022/05/12 06:03:39;;;;;;;10.60;5.70;;;12.00;99.90;;;;;;5066137;28;20041;-77
2022/05/12 06:06:06;;;;;;;9.13;5.57;;;12.20;99.90;;;;;;5068276;28;20041;-76
2022/05/12 06:08:32;;;;;;;13.37;6.33;;;12.20;99.90;;;;;;5060402;28;20052;-76
2022/05/12 06:11:03;;;;;;;11.30;6.00;;;12.20;99.90;;;;;;5050276;28;20048;-76
2022/05/12 06:13:30;;;;;;;10.60;6.65;;;12.40;99.90;;;;;;5060947;28;20053;-77
2022/05/12 06:15:56;;;;;;;11.57;7.03;;;12.50;99.90;;;;;;5063263;28;20063;-77
2022/05/12 06:18:21;;;;;;;14.57;7.13;;;12.50;99.90;;;;;;5066305;28;20079;-77
2022/05/12 06:20:49;;;;;;;12.50;7.77;;;12.60;99.90;;;;;;5062825;28;20037;-76
2022/05/12 06:23:15;;;;;;;12.13;7.37;;;12.70;99.90;;;;;;5066813;28;20037;-77
2022/05/12 06:25:41;;;;;;;12.83;7.33;;;12.70;99.90;;;;;;5066771;28;20095;-76
2022/05/12 06:28:07;;;;;;;16.73;8.47;;;12.70;99.90;;;;;;5063547;28;20044;-76
2022/05/12 06:30:33;;;;;;;12.43;8.50;;;12.80;99.90;;;;;;5064199;28;20040;-76
2022/05/12 06:33:00;;;;;;;14.63;7.93;;;13.00;99.90;;;;;;5064978;28;20036;-77
2022/05/12 06:35:26;;;;;;;18.10;8.13;;;13.20;99.90;;;;;;5066071;28;20610;-76
2022/05/12 06:37:53;;;;;;;18.07;8.70;;;13.40;99.90;;;;;;5062739;28;20044;-76
2022/05/12 06:40:19;;;;;;;13.83;7.57;;;13.50;99.90;;;;;;5060459;28;20918;-76
2022/05/12 06:42:45;;;;;;;18.50;7.40;;;13.60;99.90;;;;;;5060568;28;20909;-76
2022/05/12 06:45:15;;;;;;;14.47;8.00;;;13.70;99.90;;;;;;5065126;28;20431;-77
2022/05/12 06:47:50;;;;;;;15.80;7.77;;;13.80;99.90;;;;;;5065193;28;20488;-77
2022/05/12 06:50:28;;;;;;;12.70;7.20;;;14.00;99.90;;;;;;5067863;28;20100;-76
2022/05/12 06:52:54;;;;;;;12.90;6.73;;;14.10;99.90;;;;;;5060271;28;20143;-76
2022/05/12 06:55:21;;;;;;;11.63;7.07;;;14.20;99.90;;;;;;5061706;28;20103;-75
2022/05/12 06:57:48;;;;;;;12.60;6.40;;;14.30;99.90;;;;;;5066212;28;20068;-79
2022/05/12 07:00:16;;;;;;;9.83;5.90;;;14.40;99.90;;;;;;5062188;28;20088;-75
2022/05/12 07:02:47;;;;;;;10.43;6.83;;;14.50;99.90;;;;;;5068835;28;20106;-75
2022/05/12 07:05:18;;;;;;;12.83;5.47;;;14.50;99.90;;;;;;5068441;28;20051;-75
2022/05/12 07:07:45;;;;;;;7.18;4.30;;;14.70;99.90;;;;;;5054207;28;20036;-75
2022/05/12 07:10:12;;;;;;;12.40;4.70;;;14.80;99.90;;;;;;5073670;28;20059;-74
2022/05/12 07:12:38;;;;;;;9.00;4.57;;;14.90;99.90;;;;;;5030877;28;20060;-75
2022/05/12 07:15:05;;;;;;;8.20;4.70;;;15.00;99.90;;;;;;5070318;28;20048;-75
2022/05/12 07:17:32;;;;;;;8.60;4.40;;;15.10;99.90;;;;;;5064180;28;20049;-75
2022/05/12 07:28:12;;;;;;;8.90;3.83;;;15.60;99.90;;;;;;5070863;28;20049;-74
2022/05/12 07:33:21;;;;;;;7.45;3.33;;;15.80;99.90;;;;;;5063404;28;20810;-74
2022/05/12 07:35:47;;;;;;;5.15;3.25;;;16.00;99.90;;;;;;5066172;28;20511;-74
2022/05/12 07:38:13;;;;;;;6.93;3.00;;;16.00;99.90;;;;;;5064565;28;20048;-74
2022/05/12 07:40:38;;;;;;;8.35;2.65;;;16.10;99.90;;;;;;5064886;28;20060;-76
2022/05/12 07:43:04;;;;;;;8.73;3.35;;;16.20;99.90;;;;;;5068665;28;20087;-76
2022/05/12 07:45:30;;;;;;;11.60;3.33;;;16.30;99.90;;;;;;5066523;28;20604;-75
2022/05/12 07:47:56;;;;;;;5.50;2.80;;;16.40;99.90;;;;;;5058900;28;20064;-75
2022/05/12 07:50:21;;;;;;;4.38;2.25;;;16.50;99.90;;;;;;5066761;28;20545;-75
2022/05/12 07:52:47;;;;;;;4.82;1.98;;;16.50;99.90;;;;;;5068049;28;20127;-75
2022/05/12 07:55:13;;;;;;;4.70;2.22;;;16.60;99.90;;;;;;5067919;28;20131;-75
2022/05/12 07:57:38;;;;;;;4.75;2.72;;;16.70;99.90;;;;;;5066165;28;20072;-75
2022/05/12 08:00:05;;;;;;;7.55;2.35;;;16.80;99.90;;;;;;5065916;28;20044;-75
2022/05/12 08:02:31;;;;;;;7.07;2.75;;;16.90;99.90;;;;;;5064577;28;20049;-75
2022/05/12 08:04:57;;;;;;;5.07;2.25;;;17.10;99.90;;;;;;5057790;28;20052;-75
2022/05/12 08:07:22;;;;;;;6.78;2.60;;;17.20;99.90;;;;;;5068174;28;20061;-75
2022/05/12 08:09:48;;;;;;;11.85;2.50;;;17.30;99.90;;;;;;5067780;28;20043;-75
2022/05/12 08:12:15;;;;;;;5.68;2.28;;;17.40;99.90;;;;;;5064764;28;20512;-75
2022/05/12 08:14:41;;;;;;;6.25;2.00;;;17.40;99.90;;;;;;5067787;28;20098;-75
2022/05/12 08:17:09;;;;;;;6.40;1.98;;;17.30;99.90;;;;;;5066306;28;20044;-75
2022/05/12 08:19:35;;;;;;;6.40;1.63;;;17.10;99.90;;;;;;5065575;28;20048;-75
2022/05/12 08:22:01;;;;;;;6.32;1.60;;;16.90;99.90;;;;;;5066709;28;20067;-74
2022/05/12 08:24:26;;;;;;;5.60;1.98;;;16.90;99.90;;;;;;5068824;28;20049;-75
2022/05/12 08:26:52;;;;;;;7.10;2.13;;;17.00;99.90;;;;;;5068539;28;20060;-74
2022/05/12 08:29:19;;;;;;;5.18;2.05;;;17.30;99.90;;;;;;5062620;28;20033;-74
2022/05/12 08:31:45;;;;;;;5.22;1.50;;;17.50;99.90;;;;;;5060650;28;20037;-75
2022/05/12 08:34:10;;;;;;;6.10;2.03;;;17.50;99.90;;;;;;5061315;28;20075;-75
2022/05/12 08:36:36;;;;;;;7.68;2.10;;;17.40;99.90;;;;;;5055637;28;20061;-75
2022/05/12 08:39:03;;;;;;;4.50;1.63;;;17.40;99.90;;;;;;5062174;28;20048;-76
2022/05/12 08:41:36;;;;;;;5.22;1.65;;;17.30;99.90;;;;;;5047600;28;20048;-77
2022/05/12 08:44:10;;;;;;;5.97;1.50;;;17.20;99.90;;;;;;5066112;28;20055;-76
2022/05/12 08:46:38;;;;;;;4.43;1.65;;;17.30;99.90;;;;;;5064978;28;20081;-76
2022/05/12 08:49:16;;;;;;;6.28;1.80;;;17.20;99.90;;;;;;5066615;28;20044;-76
2022/05/12 08:51:43;;;;;;;3.13;1.80;;;17.20;99.90;;;;;;5067200;28;20053;-75
2022/05/12 08:54:14;;;;;;;4.72;1.55;;;17.30;99.90;;;;;;5067270;28;20090;-76
2022/05/12 08:56:40;;;;;;;3.37;1.30;;;17.30;99.90;;;;;;5069027;28;20052;-76
2022/05/12 08:59:06;;;;;;;3.72;1.60;;;17.30;99.90;;;;;;5064521;28;20448;-76
2022/05/12 09:01:59;;;;;;;3.97;1.63;;;17.40;99.90;;;;;;5067502;28;20052;-76
2022/05/12 09:05:11;;;;;;;5.95;2.00;;;17.40;99.90;;;;;;5064353;28;20083;-76
2022/05/12 09:08:00;;;;;;;6.75;1.70;;;17.30;99.90;;;;;;5064712;28;20056;-76
2022/05/12 09:10:42;;;;;;;5.78;1.85;;;17.60;99.90;;;;;;5065444;28;20562;-76
2022/05/12 09:13:12;;;;;;;;;;;17.70;99.90;;;;;;5058447;28;20052;-76
2022/05/12 09:15:43;;;;;;;5.00;2.00;;;17.70;99.90;;;;;;5066890;28;19933;-77
2022/05/12 09:18:22;;;;;;;6.18;2.58;;;17.50;99.90;;;;;;5061839;28;20048;-76
2022/05/12 09:20:48;;;;;;;6.20;1.90;;;17.30;99.90;;;;;;5063478;28;20040;-76
2022/05/12 09:23:13;;;;;;;7.00;1.95;;;17.40;99.90;;;;;;5045209;28;20083;-77
2022/05/12 09:25:41;;;;;;;3.75;1.73;;;17.30;99.90;;;;;;5066749;28;20136;-76
2022/05/12 09:28:18;;;;;;;5.00;2.03;;;17.50;99.90;;;;;;5066667;28;20045;-77
2022/05/12 09:30:44;;;;;;;5.20;1.90;;;17.70;99.90;;;;;;5058514;28;20102;-77
2022/05/12 09:33:10;;;;;;;3.28;1.90;;;17.70;99.90;;;;;;5053576;28;20059;-77
2022/05/12 09:35:35;;;;;;;5.03;2.08;;;17.50;99.90;;;;;;5058998;28;20048;-76
2022/05/12 09:38:23;;;;;;;4.88;1.63;;;17.40;99.90;;;;;;5059394;28;20041;-77
2022/05/12 09:40:49;;;;;;;6.75;2.20;;;17.70;99.90;;;;;;5069923;28;20516;-76
2022/05/12 09:43:17;;;;;;;3.60;1.60;;;18.00;99.90;;;;;;5059863;28;20036;-76
2022/05/12 09:45:58;;;;;;;3.10;1.52;;;18.30;99.90;;;;;;5063041;28;20064;-77
2022/05/12 09:48:27;;;;;;;3.53;1.70;;;18.50;99.90;;;;;;5060623;28;20044;-77
2022/05/12 09:51:10;;;;;;;6.05;2.00;;;18.80;99.90;;;;;;5057030;28;20397;-76
2022/05/12 09:53:37;;;;;;;5.53;1.80;;;19.10;99.90;;;;;;5062761;28;20068;-77
2022/05/12 09:56:09;;;;;;;5.82;1.83;;;19.00;99.90;;;;;;5065607;28;20101;-77
2022/05/12 09:58:47;;;;;;;5.55;2.00;;;19.10;99.90;;;;;;5060743;28;20053;-76
2022/05/12 10:01:24;;;;;;;5.65;2.00;;;19.10;99.90;;;;;;5059744;28;20041;-77
2022/05/12 10:07:53;;;;;;;5.00;1.65;;;18.90;99.90;;;;;;5056332;28;20084;-77
2022/05/12 10:10:25;;;;;;;6.93;2.00;;;18.60;99.90;;;;;;5060175;28;20060;-76
2022/05/12 10:12:54;;;;;;;;;;;18.10;99.90;;;;;;5061129;28;20464;-76
2022/05/12 10:15:28;;;;;;;5.15;1.65;;;17.90;99.90;;;;;;5070923;28;19930;-76
2022/05/12 10:18:16;;;;;;;3.75;1.23;;;18.00;99.90;;;;;;5072431;28;20601;-77
2022/05/12 10:20:46;;;;;;;4.35;1.20;;;18.00;99.90;;;;;;5061329;28;20484;-78
2022/05/12 10:23:24;;;;;;;4.63;1.60;;;18.10;99.90;;;;;;5068868;28;20041;-77
2022/05/12 10:26:08;;;;;;;5.80;1.77;;;18.30;99.10;;;;;;5068747;28;20119;-78
2022/05/12 10:28:56;;;;;;;5.15;1.90;;;18.40;99.90;;;;;;5074393;28;20043;-78
2022/05/12 10:31:54;;;;;;;4.72;1.60;;;18.60;95.00;;;;;;5072290;28;20048;-78
2022/05/12 10:34:29;;;;;;;4.05;1.60;;;18.60;93.40;;;;;;5046592;28;20415;-77
2022/05/12 10:37:22;;;;;;;3.88;1.63;;;18.60;99.90;;;;;;5067389;28;20052;-78
2022/05/12 10:39:52;;;;;;;4.15;1.50;;;18.80;93.90;;;;;;5064862;28;20141;-78
2022/05/12 10:42:26;;;;;;;3.83;1.25;;;19.00;98.30;;;;;;5066806;28;20056;-78
2022/05/12 10:44:55;;;;;;;3.65;1.60;;;18.80;91.00;;;;;;5068793;28;20112;-78
2022/05/12 10:47:39;;;;;;;4.25;1.52;;;18.60;94.10;;;;;;5063562;28;20056;-77
2022/05/12 10:50:20;;;;;;;5.05;1.77;;;18.50;99.20;;;;;;5067942;28;20052;-78
2022/05/12 10:53:08;;;;;;;4.07;1.40;;;18.50;99.80;;;;;;5066028;28;20114;-77
2022/05/12 10:55:57;;;;;;;4.47;1.55;;;18.60;94.40;;;;;;5073625;28;20052;-77
2022/05/12 10:58:35;;;;;;;4.72;1.20;;;18.90;93.80;;;;;;5060995;28;20302;-78
2022/05/12 11:01:19;;;;;;;4.68;1.33;;;19.00;90.00;;;;;;5075540;28;20135;-78
2022/05/12 11:04:11;;;;;;;3.03;1.30;;;18.90;74.10;;;;;;5068032;28;20147;-78
2022/05/12 11:06:46;;;;;;;2.58;1.08;;;18.60;89.20;;;;;;5064612;28;20080;-77
2022/05/12 11:09:24;;;;;;;2.53;1.30;;;18.50;90.50;;;;;;5075629;28;20446;-77
2022/05/12 11:11:52;;;;;;;4.43;1.15;;;18.60;84.60;;;;;;5072206;28;20048;-76
2022/05/12 11:14:24;;;;;;;4.10;1.38;;;18.80;92.20;;;;;;5057684;28;20048;-77
2022/05/12 11:17:09;;;;;;;2.58;1.45;;;19.10;79.60;;;;;;5073835;28;20084;-77
2022/05/12 11:19:37;;;;;;;3.85;1.40;;;19.30;72.00;;;;;;5075635;28;20060;-77
2022/05/12 11:22:43;;;;;;;3.03;1.40;;;19.30;79.40;;;;;;5069992;28;20044;-77
2022/05/12 11:25:15;;;;;;;3.60;1.13;;;19.30;70.20;;;;;;5062967;28;20044;-77
2022/05/12 11:31:29;;;;;;;7.25;1.27;;;18.90;65.80;;;;;;5069729;28;19924;-77
2022/05/12 11:34:01;;;;;;;5.75;1.52;;;18.70;68.60;;;;;;5033491;28;20045;-78
2022/05/12 11:36:36;;;;;;;;;;;19.10;80.00;;;;;;5034232;28;20057;-78
2022/05/12 11:39:22;;;;;;;4.10;1.20;;;19.50;70.00;;;;;;5059361;28;20338;-77
2022/05/12 11:41:48;;;;;;;2.45;1.58;;;19.50;74.00;;;;;;5074290;28;20044;-78
2022/05/12 11:44:27;;;;;;;2.60;1.10;;;19.60;74.20;;;;;;5074414;28;20069;-78
2022/05/12 11:47:14;;;;;;;5.32;1.48;;;19.40;69.40;;;;;;5073990;28;20072;-78
2022/05/12 11:50:14;;;;;;;4.18;1.38;;;19.20;74.80;;;;;;5068448;28;20072;-77
2022/05/12 11:53:15;;;;;;;2.80;1.40;;;19.00;69.80;;;;;;5067099;28;20053;-77
2022/05/12 11:56:01;;;;;;;2.78;1.10;;;18.70;74.80;;;;;;5056608;28;20058;-77
2022/05/12 11:58:37;;;;;;;5.30;1.48;;;18.60;73.60;;;;;;5074125;28;20108;-78
2022/05/12 12:01:07;;;;;;;2.17;1.27;;;18.70;70.80;;;;;;5075807;28;20483;-78
2022/05/12 12:03:33;;;;;;;2.13;1.08;;;19.00;72.90;;;;;;5074353;28;20044;-78
2022/05/12 12:06:04;;;;;;;3.67;1.25;;;19.30;71.40;;;;;;5074599;28;20086;-77
2022/05/12 12:08:32;;;;;;;4.63;1.60;;;19.40;70.60;;;;;;5072230;28;20052;-77
2022/05/12 12:11:13;;;;;;;3.17;1.20;;;19.60;68.30;;;;;;5067046;28;20060;-77
2022/05/12 12:13:59;;;;;;;2.92;1.35;;;19.70;68.60;;;;;;5074890;28;20052;-77
2022/05/12 12:17:02;;;;;;;2.58;1.13;;;19.50;69.50;;;;;;5057711;28;20581;-77
2022/05/12 12:19:42;;;;;;;4.07;1.88;;;19.20;65.40;;;;;;5067582;28;20068;-78
2022/05/12 12:22:19;;;;;;;4.38;1.23;;;18.90;71.30;;;;;;5043921;28;20052;-78
2022/05/12 12:25:04;;;;;;;2.15;0.95;;;18.90;80.00;;;;;;5074149;28;20553;-80
2022/05/12 12:27:42;;;;;;;2.25;1.02;;;19.00;68.10;;;;;;5062295;28;20056;-76
2022/05/12 12:30:25;;;;;;;3.55;1.45;;;19.10;68.60;;;;;;5070305;28;20079;-76
2022/05/12 12:33:15;;;;;;;4.82;1.20;;;19.10;62.10;;;;;;5073785;28;20519;-76
2022/05/12 12:36:05;;;;;;;3.78;1.30;;;19.00;65.50;;;;;;5073126;28;20598;-76
2022/05/12 12:38:46;;;;;;;2.30;1.15;;;18.90;67.90;;;;;;5057563;28;20053;-76
2022/05/12 12:41:27;;;;;;;2.28;1.20;;;19.00;64.80;;;;;;5061844;28;20135;-77
2022/05/12 12:44:04;;;;;;;4.22;1.08;;;19.40;68.60;;;;;;5072848;28;20087;-76
2022/05/12 12:46:44;;;;;;;3.50;1.10;;;19.90;66.50;;;;;;5070405;28;20041;-76
2022/05/12 12:49:25;;;;;;;2.33;1.10;;;20.40;61.70;;;;;;5067115;28;20036;-78
2022/05/12 12:52:04;;;;;;;3.00;1.35;;;20.60;57.30;;;;;;5081376;28;20059;-77
2022/05/12 12:57:19;;;;;;;3.53;1.05;;;20.40;58.70;;;;;;5064104;28;20080;-74
2022/05/12 12:59:58;;;;;;;2.90;1.38;;;19.90;60.30;;;;;;5065251;28;20044;-74
2022/05/12 13:02:27;;;;;;;3.10;1.10;;;19.90;59.50;;;;;;5073843;28;20084;-74
2022/05/12 13:04:55;;;;;;;4.43;1.42;;;19.90;59.90;;;;;;5073850;28;20052;-74
2022/05/12 13:07:27;;;;;;;3.17;1.00;;;20.00;58.20;;;;;;5073860;28;20173;-74
2022/05/12 13:09:54;;;;;;;;;;;20.10;57.10;;;;;;5067599;28;20063;-73
2022/05/12 13:12:24;;;;;;;4.35;1.13;;;19.90;56.00;;;;;;5064093;28;19931;-73
2022/05/12 13:14:51;;;;;;;3.58;1.40;;;19.70;59.50;;;;;;5067776;28;20052;-74
2022/05/12 13:17:19;;;;;;;5.25;1.48;;;19.50;61.50;;;;;;5066365;28;20043;-74
2022/05/12 13:19:45;;;;;;;2.70;1.30;;;19.40;62.20;;;;;;5066661;28;20127;-74
2022/05/12 13:22:22;;;;;;;4.97;1.08;;;19.20;61.70;;;;;;5064061;28;20099;-73
2022/05/12 13:24:48;;;;;;;2.88;1.40;;;19.00;63.00;;;;;;5064470;28;20049;-74
2022/05/12 13:27:19;;;;;;;2.75;1.33;;;18.80;63.90;;;;;;5066687;28;20572;-73